sensor_id;sensor_type;location;lat;lon;timestamp;P1;durP1;ratioP1;P2;durP2;ratioP2
12308;SDS011;6217;48.150;17.142;2023-07-31T00:01:06;1.80;;;0.77;;
12308;SDS011;6217;48.150;17.142;2023-07-31T00:05:12;2.65;;;0.93;;
12308;SDS011;6217;48.150;17.142;2023-07-31T00:09:18;1.90;;;0.77;;
12308;SDS011;6217;48.150;17.142;2023-07-31T00:13:24;1.05;;;0.95;;
12308;SDS011;6217;48.150;17.142;2023-07-31T00:17:29;2.75;;;1.00;;
12308;SDS011;6217;48.150;17.142;2023-07-31T00:21:35;2.63;;;0.90;;
12308;SDS011;6217;48.150;17.142;2023-07-31T00:25:41;0.85;;;0.70;;
12308;SDS011;6217;48.150;17.142;2023-07-31T00:29:47;1.00;;;0.90;;
12308;SDS011;6217;48.150;17.142;2023-07-31T00:33:53;2.85;;;0.82;;
12308;SDS011;6217;48.150;17.142;2023-07-31T00:37:59;2.28;;;0.98;;
12308;SDS011;6217;48.150;17.142;2023-07-31T00:42:05;2.45;;;1.15;;
12308;SDS011;6217;48.150;17.142;2023-07-31T00:46:11;4.32;;;0.70;;
12308;SDS011;6217;48.150;17.142;2023-07-31T00:50:17;2.33;;;1.33;;
12308;SDS011;6217;48.150;17.142;2023-07-31T00:54:23;1.63;;;1.13;;
12308;SDS011;6217;48.150;17.142;2023-07-31T00:58:29;2.03;;;1.30;;
12308;SDS011;6217;48.150;17.142;2023-07-31T01:02:35;0.73;;;0.70;;
12308;SDS011;6217;48.150;17.142;2023-07-31T01:06:48;2.58;;;0.93;;
12308;SDS011;6217;48.150;17.142;2023-07-31T01:11:04;2.45;;;2.25;;
12308;SDS011;6217;48.150;17.142;2023-07-31T01:15:22;0.90;;;0.80;;
12308;SDS011;6217;48.150;17.142;2023-07-31T01:19:28;1.73;;;1.00;;
12308;SDS011;6217;48.150;17.142;2023-07-31T01:23:51;1.58;;;1.00;;
12308;SDS011;6217;48.150;17.142;2023-07-31T01:28:43;2.70;;;1.58;;
12308;SDS011;6217;48.150;17.142;2023-07-31T01:32:55;1.23;;;0.88;;
12308;SDS011;6217;48.150;17.142;2023-07-31T01:37:03;4.43;;;1.23;;
12308;SDS011;6217;48.150;17.142;2023-07-31T01:41:09;1.60;;;0.95;;
12308;SDS011;6217;48.150;17.142;2023-07-31T01:45:15;1.40;;;1.00;;
12308;SDS011;6217;48.150;17.142;2023-07-31T01:49:21;2.35;;;1.02;;
12308;SDS011;6217;48.150;17.142;2023-07-31T01:53:26;3.22;;;1.10;;
12308;SDS011;6217;48.150;17.142;2023-07-31T01:57:33;1.15;;;0.90;;
12308;SDS011;6217;48.150;17.142;2023-07-31T02:01:38;1.23;;;0.88;;
12308;SDS011;6217;48.150;17.142;2023-07-31T02:05:45;1.52;;;1.00;;
12308;SDS011;6217;48.150;17.142;2023-07-31T02:09:52;1.23;;;0.90;;
12308;SDS011;6217;48.150;17.142;2023-07-31T02:13:59;1.52;;;0.90;;
12308;SDS011;6217;48.150;17.142;2023-07-31T02:18:05;1.83;;;0.80;;
12308;SDS011;6217;48.150;17.142;2023-07-31T02:22:10;2.40;;;0.80;;
12308;SDS011;6217;48.150;17.142;2023-07-31T02:26:16;1.73;;;0.65;;
12308;SDS011;6217;48.150;17.142;2023-07-31T02:30:23;2.70;;;1.48;;
12308;SDS011;6217;48.150;17.142;2023-07-31T02:34:29;1.95;;;0.90;;
12308;SDS011;6217;48.150;17.142;2023-07-31T02:38:35;1.65;;;0.93;;
12308;SDS011;6217;48.150;17.142;2023-07-31T02:42:41;3.90;;;1.10;;
12308;SDS011;6217;48.150;17.142;2023-07-31T02:46:47;2.08;;;1.20;;
12308;SDS011;6217;48.150;17.142;2023-07-31T02:50:54;1.10;;;0.75;;
12308;SDS011;6217;48.150;17.142;2023-07-31T02:55:00;3.10;;;0.90;;
12308;SDS011;6217;48.150;17.142;2023-07-31T02:59:06;1.35;;;0.80;;
12308;SDS011;6217;48.150;17.142;2023-07-31T03:03:12;1.23;;;0.88;;
12308;SDS011;6217;48.150;17.142;2023-07-31T03:07:18;1.23;;;1.00;;
12308;SDS011;6217;48.150;17.142;2023-07-31T03:11:24;1.35;;;1.00;;
12308;SDS011;6217;48.150;17.142;2023-07-31T03:15:30;2.13;;;0.90;;
12308;SDS011;6217;48.150;17.142;2023-07-31T03:19:35;1.48;;;0.88;;
12308;SDS011;6217;48.150;17.142;2023-07-31T03:23:41;1.20;;;1.00;;
12308;SDS011;6217;48.150;17.142;2023-07-31T03:27:48;2.33;;;0.90;;
12308;SDS011;6217;48.150;17.142;2023-07-31T03:31:54;1.88;;;1.00;;
12308;SDS011;6217;48.150;17.142;2023-07-31T03:36:00;3.28;;;1.02;;
12308;SDS011;6217;48.150;17.142;2023-07-31T03:40:07;2.38;;;0.95;;
12308;SDS011;6217;48.150;17.142;2023-07-31T03:44:13;1.20;;;0.90;;
12308;SDS011;6217;48.150;17.142;2023-07-31T03:48:19;1.33;;;1.05;;
12308;SDS011;6217;48.150;17.142;2023-07-31T03:52:25;1.33;;;0.98;;
12308;SDS011;6217;48.150;17.142;2023-07-31T03:56:31;1.20;;;1.10;;
12308;SDS011;6217;48.150;17.142;2023-07-31T04:00:37;1.40;;;0.90;;
12308;SDS011;6217;48.150;17.142;2023-07-31T04:04:45;2.38;;;0.82;;
12308;SDS011;6217;48.150;17.142;2023-07-31T04:08:51;2.97;;;0.88;;
12308;SDS011;6217;48.150;17.142;2023-07-31T04:12:57;4.07;;;0.80;;
12308;SDS011;6217;48.150;17.142;2023-07-31T04:17:03;3.08;;;1.10;;
12308;SDS011;6217;48.150;17.142;2023-07-31T04:21:08;4.07;;;1.10;;
12308;SDS011;6217;48.150;17.142;2023-07-31T04:25:15;9.55;;;1.08;;
12308;SDS011;6217;48.150;17.142;2023-07-31T04:29:21;2.33;;;0.90;;
12308;SDS011;6217;48.150;17.142;2023-07-31T04:33:27;3.50;;;1.20;;
12308;SDS011;6217;48.150;17.142;2023-07-31T04:37:33;2.08;;;1.85;;
12308;SDS011;6217;48.150;17.142;2023-07-31T04:41:39;5.32;;;1.13;;
12308;SDS011;6217;48.150;17.142;2023-07-31T04:45:45;1.42;;;0.80;;
12308;SDS011;6217;48.150;17.142;2023-07-31T04:49:55;1.25;;;1.10;;
12308;SDS011;6217;48.150;17.142;2023-07-31T04:54:01;2.65;;;2.00;;
12308;SDS011;6217;48.150;17.142;2023-07-31T04:58:07;5.03;;;1.05;;
12308;SDS011;6217;48.150;17.142;2023-07-31T05:02:13;1.02;;;0.80;;
12308;SDS011;6217;48.150;17.142;2023-07-31T05:06:19;4.65;;;0.95;;
12308;SDS011;6217;48.150;17.142;2023-07-31T05:10:25;1.98;;;1.05;;
12308;SDS011;6217;48.150;17.142;2023-07-31T05:14:31;4.28;;;1.17;;
12308;SDS011;6217;48.150;17.142;2023-07-31T05:18:37;1.25;;;0.95;;
12308;SDS011;6217;48.150;17.142;2023-07-31T05:22:43;1.92;;;0.85;;
12308;SDS011;6217;48.150;17.142;2023-07-31T05:26:49;3.88;;;1.10;;
12308;SDS011;6217;48.150;17.142;2023-07-31T05:30:58;3.05;;;0.90;;
12308;SDS011;6217;48.150;17.142;2023-07-31T05:35:06;2.95;;;1.48;;
12308;SDS011;6217;48.150;17.142;2023-07-31T05:39:12;2.67;;;1.20;;
12308;SDS011;6217;48.150;17.142;2023-07-31T05:43:18;1.48;;;0.95;;
12308;SDS011;6217;48.150;17.142;2023-07-31T05:47:24;1.23;;;0.95;;
12308;SDS011;6217;48.150;17.142;2023-07-31T05:51:30;5.30;;;1.17;;
12308;SDS011;6217;48.150;17.142;2023-07-31T05:55:35;3.63;;;0.82;;
12308;SDS011;6217;48.150;17.142;2023-07-31T05:59:41;2.72;;;1.10;;
12308;SDS011;6217;48.150;17.142;2023-07-31T06:03:47;2.15;;;0.90;;
12308;SDS011;6217;48.150;17.142;2023-07-31T06:07:53;3.53;;;1.00;;
12308;SDS011;6217;48.150;17.142;2023-07-31T06:11:59;3.53;;;0.80;;
12308;SDS011;6217;48.150;17.142;2023-07-31T06:16:05;3.00;;;1.05;;
12308;SDS011;6217;48.150;17.142;2023-07-31T06:20:11;2.05;;;0.80;;
12308;SDS011;6217;48.150;17.142;2023-07-31T06:24:17;1.00;;;0.77;;
12308;SDS011;6217;48.150;17.142;2023-07-31T06:28:28;1.77;;;0.75;;
12308;SDS011;6217;48.150;17.142;2023-07-31T06:32:35;1.87;;;0.90;;
12308;SDS011;6217;48.150;17.142;2023-07-31T06:36:41;1.65;;;0.82;;
12308;SDS011;6217;48.150;17.142;2023-07-31T06:40:47;4.22;;;1.77;;
12308;SDS011;6217;48.150;17.142;2023-07-31T06:44:54;2.47;;;0.90;;
12308;SDS011;6217;48.150;17.142;2023-07-31T06:49:00;3.40;;;1.15;;
12308;SDS011;6217;48.150;17.142;2023-07-31T06:53:06;2.35;;;0.77;;
12308;SDS011;6217;48.150;17.142;2023-07-31T06:57:12;2.75;;;1.08;;
12308;SDS011;6217;48.150;17.142;2023-07-31T07:01:17;1.90;;;0.73;;
12308;SDS011;6217;48.150;17.142;2023-07-31T07:05:24;3.35;;;0.93;;
12308;SDS011;6217;48.150;17.142;2023-07-31T07:09:29;2.25;;;1.00;;
12308;SDS011;6217;48.150;17.142;2023-07-31T07:13:35;3.58;;;1.08;;
12308;SDS011;6217;48.150;17.142;2023-07-31T07:17:41;3.40;;;0.80;;
12308;SDS011;6217;48.150;17.142;2023-07-31T07:21:47;3.45;;;1.02;;
12308;SDS011;6217;48.150;17.142;2023-07-31T07:25:53;5.38;;;1.23;;
12308;SDS011;6217;48.150;17.142;2023-07-31T07:30:00;1.83;;;0.80;;
12308;SDS011;6217;48.150;17.142;2023-07-31T07:34:06;1.98;;;0.90;;
12308;SDS011;6217;48.150;17.142;2023-07-31T07:38:13;3.05;;;0.93;;
12308;SDS011;6217;48.150;17.142;2023-07-31T07:42:20;5.60;;;1.10;;
12308;SDS011;6217;48.150;17.142;2023-07-31T07:46:26;2.10;;;1.00;;
12308;SDS011;6217;48.150;17.142;2023-07-31T07:50:32;2.47;;;0.95;;
12308;SDS011;6217;48.150;17.142;2023-07-31T07:54:38;5.38;;;1.00;;
12308;SDS011;6217;48.150;17.142;2023-07-31T07:58:44;2.78;;;0.88;;
12308;SDS011;6217;48.150;17.142;2023-07-31T08:02:50;2.13;;;0.98;;
12308;SDS011;6217;48.150;17.142;2023-07-31T08:06:56;5.38;;;0.73;;
12308;SDS011;6217;48.150;17.142;2023-07-31T08:11:01;2.10;;;1.50;;
12308;SDS011;6217;48.150;17.142;2023-07-31T08:15:08;1.88;;;0.80;;
12308;SDS011;6217;48.150;17.142;2023-07-31T08:19:14;3.30;;;1.05;;
12308;SDS011;6217;48.150;17.142;2023-07-31T08:23:20;1.17;;;1.00;;
12308;SDS011;6217;48.150;17.142;2023-07-31T08:27:26;0.95;;;0.70;;
12308;SDS011;6217;48.150;17.142;2023-07-31T08:31:32;2.13;;;0.85;;
12308;SDS011;6217;48.150;17.142;2023-07-31T08:35:38;1.48;;;0.80;;
12308;SDS011;6217;48.150;17.142;2023-07-31T08:39:44;1.92;;;1.00;;
12308;SDS011;6217;48.150;17.142;2023-07-31T08:43:49;3.75;;;0.75;;
12308;SDS011;6217;48.150;17.142;2023-07-31T08:47:57;1.98;;;0.90;;
12308;SDS011;6217;48.150;17.142;2023-07-31T08:52:04;2.85;;;0.90;;
12308;SDS011;6217;48.150;17.142;2023-07-31T08:56:11;2.40;;;0.73;;
12308;SDS011;6217;48.150;17.142;2023-07-31T09:00:19;2.88;;;0.98;;
12308;SDS011;6217;48.150;17.142;2023-07-31T09:04:29;1.10;;;0.80;;
12308;SDS011;6217;48.150;17.142;2023-07-31T09:08:37;3.17;;;1.05;;
12308;SDS011;6217;48.150;17.142;2023-07-31T09:12:48;2.50;;;0.90;;
12308;SDS011;6217;48.150;17.142;2023-07-31T09:16:57;1.45;;;0.82;;
12308;SDS011;6217;48.150;17.142;2023-07-31T09:21:05;4.55;;;1.08;;
12308;SDS011;6217;48.150;17.142;2023-07-31T09:25:18;3.25;;;0.90;;
12308;SDS011;6217;48.150;17.142;2023-07-31T09:29:27;3.50;;;1.10;;
12308;SDS011;6217;48.150;17.142;2023-07-31T09:33:34;2.35;;;0.80;;
12308;SDS011;6217;48.150;17.142;2023-07-31T09:38:03;3.35;;;0.70;;
12308;SDS011;6217;48.150;17.142;2023-07-31T09:42:11;5.00;;;1.05;;
12308;SDS011;6217;48.150;17.142;2023-07-31T09:46:17;3.15;;;0.82;;
12308;SDS011;6217;48.150;17.142;2023-07-31T09:50:26;1.30;;;0.70;;
12308;SDS011;6217;48.150;17.142;2023-07-31T09:54:32;1.52;;;0.88;;
12308;SDS011;6217;48.150;17.142;2023-07-31T09:58:38;2.00;;;0.80;;
12308;SDS011;6217;48.150;17.142;2023-07-31T10:02:45;4.20;;;0.70;;
12308;SDS011;6217;48.150;17.142;2023-07-31T10:06:52;1.63;;;0.65;;
12308;SDS011;6217;48.150;17.142;2023-07-31T10:10:59;3.38;;;1.02;;
12308;SDS011;6217;48.150;17.142;2023-07-31T10:15:07;2.97;;;1.02;;
12308;SDS011;6217;48.150;17.142;2023-07-31T10:19:14;10.55;;;1.27;;
12308;SDS011;6217;48.150;17.142;2023-07-31T10:23:21;1.88;;;0.90;;
12308;SDS011;6217;48.150;17.142;2023-07-31T10:27:30;2.83;;;0.77;;
12308;SDS011;6217;48.150;17.142;2023-07-31T10:31:36;3.35;;;0.82;;
12308;SDS011;6217;48.150;17.142;2023-07-31T10:35:42;2.25;;;1.45;;
12308;SDS011;6217;48.150;17.142;2023-07-31T10:40:02;1.00;;;0.70;;
12308;SDS011;6217;48.150;17.142;2023-07-31T10:44:10;1.38;;;0.80;;
12308;SDS011;6217;48.150;17.142;2023-07-31T10:48:18;2.92;;;0.82;;
12308;SDS011;6217;48.150;17.142;2023-07-31T10:52:24;1.55;;;1.15;;
12308;SDS011;6217;48.150;17.142;2023-07-31T10:56:36;4.45;;;1.00;;
12308;SDS011;6217;48.150;17.142;2023-07-31T11:00:44;24.67;;;5.07;;
12308;SDS011;6217;48.150;17.142;2023-07-31T11:05:06;1.58;;;0.80;;
12308;SDS011;6217;48.150;17.142;2023-07-31T11:09:14;2.88;;;0.70;;
12308;SDS011;6217;48.150;17.142;2023-07-31T11:13:20;1.33;;;0.70;;
12308;SDS011;6217;48.150;17.142;2023-07-31T11:17:25;4.55;;;0.70;;
12308;SDS011;6217;48.150;17.142;2023-07-31T11:21:31;2.85;;;0.70;;
12308;SDS011;6217;48.150;17.142;2023-07-31T11:25:38;1.30;;;1.00;;
12308;SDS011;6217;48.150;17.142;2023-07-31T11:29:50;6.28;;;0.80;;
12308;SDS011;6217;48.150;17.142;2023-07-31T11:34:05;1.38;;;0.63;;
12308;SDS011;6217;48.150;17.142;2023-07-31T11:38:12;8.70;;;1.40;;
12308;SDS011;6217;48.150;17.142;2023-07-31T11:42:30;2.08;;;0.88;;
12308;SDS011;6217;48.150;17.142;2023-07-31T11:46:36;5.80;;;1.10;;
12308;SDS011;6217;48.150;17.142;2023-07-31T11:50:43;0.77;;;0.60;;
12308;SDS011;6217;48.150;17.142;2023-07-31T11:54:50;2.85;;;0.73;;
12308;SDS011;6217;48.150;17.142;2023-07-31T11:58:57;3.20;;;0.93;;
12308;SDS011;6217;48.150;17.142;2023-07-31T12:03:04;5.32;;;0.93;;
12308;SDS011;6217;48.150;17.142;2023-07-31T12:07:11;3.40;;;0.80;;
12308;SDS011;6217;48.150;17.142;2023-07-31T12:11:18;4.47;;;1.52;;
12308;SDS011;6217;48.150;17.142;2023-07-31T12:15:37;1.85;;;0.98;;
12308;SDS011;6217;48.150;17.142;2023-07-31T12:19:48;2.08;;;0.75;;
12308;SDS011;6217;48.150;17.142;2023-07-31T12:23:54;7.05;;;1.10;;
12308;SDS011;6217;48.150;17.142;2023-07-31T12:28:04;1.73;;;0.68;;
12308;SDS011;6217;48.150;17.142;2023-07-31T12:32:21;2.40;;;0.85;;
12308;SDS011;6217;48.150;17.142;2023-07-31T12:36:34;1.83;;;0.85;;
12308;SDS011;6217;48.150;17.142;2023-07-31T12:40:41;3.42;;;0.90;;
12308;SDS011;6217;48.150;17.142;2023-07-31T12:44:47;1.15;;;0.60;;
12308;SDS011;6217;48.150;17.142;2023-07-31T12:48:53;3.00;;;0.90;;
12308;SDS011;6217;48.150;17.142;2023-07-31T12:52:59;3.33;;;0.90;;
12308;SDS011;6217;48.150;17.142;2023-07-31T12:57:05;3.10;;;0.70;;
12308;SDS011;6217;48.150;17.142;2023-07-31T13:01:11;6.03;;;0.80;;
12308;SDS011;6217;48.150;17.142;2023-07-31T13:05:17;3.58;;;0.80;;
12308;SDS011;6217;48.150;17.142;2023-07-31T13:09:25;2.65;;;0.90;;
12308;SDS011;6217;48.150;17.142;2023-07-31T13:13:31;1.63;;;1.05;;
12308;SDS011;6217;48.150;17.142;2023-07-31T13:17:37;2.83;;;1.33;;
12308;SDS011;6217;48.150;17.142;2023-07-31T13:21:43;14.45;;;3.53;;
12308;SDS011;6217;48.150;17.142;2023-07-31T13:25:49;2.60;;;0.90;;
12308;SDS011;6217;48.150;17.142;2023-07-31T13:29:55;4.65;;;0.90;;
12308;SDS011;6217;48.150;17.142;2023-07-31T13:34:00;3.33;;;0.85;;
12308;SDS011;6217;48.150;17.142;2023-07-31T13:38:06;4.82;;;1.10;;
12308;SDS011;6217;48.150;17.142;2023-07-31T13:42:12;3.08;;;0.77;;
12308;SDS011;6217;48.150;17.142;2023-07-31T13:46:18;2.70;;;0.65;;
12308;SDS011;6217;48.150;17.142;2023-07-31T13:50:24;1.50;;;0.65;;
12308;SDS011;6217;48.150;17.142;2023-07-31T13:54:30;2.05;;;0.95;;
12308;SDS011;6217;48.150;17.142;2023-07-31T13:58:36;1.63;;;0.77;;
12308;SDS011;6217;48.150;17.142;2023-07-31T14:02:42;7.20;;;0.90;;
12308;SDS011;6217;48.150;17.142;2023-07-31T14:06:48;2.92;;;0.80;;
12308;SDS011;6217;48.150;17.142;2023-07-31T14:10:55;1.80;;;0.73;;
12308;SDS011;6217;48.150;17.142;2023-07-31T14:15:01;3.08;;;0.70;;
12308;SDS011;6217;48.150;17.142;2023-07-31T14:19:08;3.80;;;0.80;;
12308;SDS011;6217;48.150;17.142;2023-07-31T14:23:14;2.08;;;0.80;;
12308;SDS011;6217;48.150;17.142;2023-07-31T14:27:22;4.03;;;0.98;;
12308;SDS011;6217;48.150;17.142;2023-07-31T14:31:28;1.63;;;0.80;;
12308;SDS011;6217;48.150;17.142;2023-07-31T14:35:34;4.43;;;0.98;;
12308;SDS011;6217;48.150;17.142;2023-07-31T14:39:40;2.50;;;0.82;;
12308;SDS011;6217;48.150;17.142;2023-07-31T14:43:46;3.55;;;0.90;;
12308;SDS011;6217;48.150;17.142;2023-07-31T14:47:52;1.85;;;0.90;;
12308;SDS011;6217;48.150;17.142;2023-07-31T14:51:58;3.45;;;0.80;;
12308;SDS011;6217;48.150;17.142;2023-07-31T14:56:04;1.80;;;0.80;;
12308;SDS011;6217;48.150;17.142;2023-07-31T15:00:10;8.15;;;1.08;;
12308;SDS011;6217;48.150;17.142;2023-07-31T15:04:16;2.20;;;0.68;;
12308;SDS011;6217;48.150;17.142;2023-07-31T15:08:22;4.45;;;0.82;;
12308;SDS011;6217;48.150;17.142;2023-07-31T15:12:28;3.45;;;1.08;;
12308;SDS011;6217;48.150;17.142;2023-07-31T15:16:34;5.20;;;0.80;;
12308;SDS011;6217;48.150;17.142;2023-07-31T15:20:40;1.83;;;0.80;;
12308;SDS011;6217;48.150;17.142;2023-07-31T15:24:46;3.08;;;0.70;;
12308;SDS011;6217;48.150;17.142;2023-07-31T15:29:01;2.80;;;0.90;;
12308;SDS011;6217;48.150;17.142;2023-07-31T15:33:14;3.17;;;0.57;;
12308;SDS011;6217;48.150;17.142;2023-07-31T15:37:20;7.50;;;1.08;;
12308;SDS011;6217;48.150;17.142;2023-07-31T15:41:26;9.10;;;1.25;;
12308;SDS011;6217;48.150;17.142;2023-07-31T15:45:34;2.35;;;1.00;;
12308;SDS011;6217;48.150;17.142;2023-07-31T15:49:40;4.68;;;1.25;;
12308;SDS011;6217;48.150;17.142;2023-07-31T15:53:46;3.55;;;0.90;;
12308;SDS011;6217;48.150;17.142;2023-07-31T15:57:52;2.45;;;0.70;;
12308;SDS011;6217;48.150;17.142;2023-07-31T16:01:58;2.97;;;1.20;;
12308;SDS011;6217;48.150;17.142;2023-07-31T16:06:04;1.60;;;0.82;;
12308;SDS011;6217;48.150;17.142;2023-07-31T16:10:10;1.67;;;0.90;;
12308;SDS011;6217;48.150;17.142;2023-07-31T16:14:18;3.13;;;1.02;;
12308;SDS011;6217;48.150;17.142;2023-07-31T16:18:24;2.92;;;1.23;;
12308;SDS011;6217;48.150;17.142;2023-07-31T16:22:30;2.35;;;1.20;;
12308;SDS011;6217;48.150;17.142;2023-07-31T16:26:36;1.98;;;0.90;;
12308;SDS011;6217;48.150;17.142;2023-07-31T16:30:42;1.90;;;0.70;;
12308;SDS011;6217;48.150;17.142;2023-07-31T16:34:49;2.58;;;0.80;;
12308;SDS011;6217;48.150;17.142;2023-07-31T16:38:55;2.45;;;0.80;;
12308;SDS011;6217;48.150;17.142;2023-07-31T16:43:01;1.98;;;0.80;;
12308;SDS011;6217;48.150;17.142;2023-07-31T16:47:07;3.13;;;0.63;;
12308;SDS011;6217;48.150;17.142;2023-07-31T16:51:13;1.15;;;0.85;;
12308;SDS011;6217;48.150;17.142;2023-07-31T16:55:19;1.42;;;0.70;;
12308;SDS011;6217;48.150;17.142;2023-07-31T16:59:25;3.05;;;1.10;;
12308;SDS011;6217;48.150;17.142;2023-07-31T17:03:32;1.60;;;0.90;;
12308;SDS011;6217;48.150;17.142;2023-07-31T17:07:38;4.85;;;1.15;;
12308;SDS011;6217;48.150;17.142;2023-07-31T17:11:43;2.25;;;0.80;;
12308;SDS011;6217;48.150;17.142;2023-07-31T17:15:49;2.63;;;1.00;;
12308;SDS011;6217;48.150;17.142;2023-07-31T17:19:55;3.08;;;0.80;;
12308;SDS011;6217;48.150;17.142;2023-07-31T17:24:01;3.45;;;1.55;;
12308;SDS011;6217;48.150;17.142;2023-07-31T17:28:07;3.25;;;0.70;;
12308;SDS011;6217;48.150;17.142;2023-07-31T17:32:13;3.22;;;0.95;;
12308;SDS011;6217;48.150;17.142;2023-07-31T17:36:19;5.22;;;1.08;;
12308;SDS011;6217;48.150;17.142;2023-07-31T17:40:25;3.22;;;0.90;;
12308;SDS011;6217;48.150;17.142;2023-07-31T17:44:33;2.00;;;1.05;;
12308;SDS011;6217;48.150;17.142;2023-07-31T17:48:42;1.55;;;0.93;;
12308;SDS011;6217;48.150;17.142;2023-07-31T17:52:51;9.50;;;1.77;;
12308;SDS011;6217;48.150;17.142;2023-07-31T17:56:57;4.28;;;1.30;;
12308;SDS011;6217;48.150;17.142;2023-07-31T18:01:03;3.78;;;1.13;;
12308;SDS011;6217;48.150;17.142;2023-07-31T18:05:09;4.30;;;1.30;;
12308;SDS011;6217;48.150;17.142;2023-07-31T18:09:15;2.03;;;1.00;;
12308;SDS011;6217;48.150;17.142;2023-07-31T18:13:21;3.67;;;0.93;;
12308;SDS011;6217;48.150;17.142;2023-07-31T18:17:27;5.78;;;1.60;;
12308;SDS011;6217;48.150;17.142;2023-07-31T18:21:33;5.68;;;1.65;;
12308;SDS011;6217;48.150;17.142;2023-07-31T18:25:41;2.97;;;1.30;;
12308;SDS011;6217;48.150;17.142;2023-07-31T18:29:47;8.23;;;1.40;;
12308;SDS011;6217;48.150;17.142;2023-07-31T18:33:53;4.32;;;1.67;;
12308;SDS011;6217;48.150;17.142;2023-07-31T18:37:59;4.15;;;1.58;;
12308;SDS011;6217;48.150;17.142;2023-07-31T18:42:05;5.25;;;1.50;;
12308;SDS011;6217;48.150;17.142;2023-07-31T18:46:13;5.57;;;1.70;;
12308;SDS011;6217;48.150;17.142;2023-07-31T18:50:20;6.60;;;1.70;;
12308;SDS011;6217;48.150;17.142;2023-07-31T18:54:26;3.95;;;1.60;;
12308;SDS011;6217;48.150;17.142;2023-07-31T18:58:32;2.67;;;1.35;;
12308;SDS011;6217;48.150;17.142;2023-07-31T19:02:38;2.95;;;0.98;;
12308;SDS011;6217;48.150;17.142;2023-07-31T19:06:45;2.45;;;1.08;;
12308;SDS011;6217;48.150;17.142;2023-07-31T19:10:51;4.35;;;0.90;;
12308;SDS011;6217;48.150;17.142;2023-07-31T19:14:57;2.72;;;0.93;;
12308;SDS011;6217;48.150;17.142;2023-07-31T19:19:03;2.22;;;1.13;;
12308;SDS011;6217;48.150;17.142;2023-07-31T19:23:09;4.32;;;1.10;;
12308;SDS011;6217;48.150;17.142;2023-07-31T19:27:15;3.28;;;1.10;;
12308;SDS011;6217;48.150;17.142;2023-07-31T19:31:21;4.88;;;1.15;;
12308;SDS011;6217;48.150;17.142;2023-07-31T19:35:26;3.60;;;1.42;;
12308;SDS011;6217;48.150;17.142;2023-07-31T19:39:32;3.15;;;1.17;;
12308;SDS011;6217;48.150;17.142;2023-07-31T19:43:39;2.67;;;1.10;;
12308;SDS011;6217;48.150;17.142;2023-07-31T19:47:45;5.68;;;1.20;;
12308;SDS011;6217;48.150;17.142;2023-07-31T19:51:51;2.08;;;1.10;;
12308;SDS011;6217;48.150;17.142;2023-07-31T19:55:57;2.53;;;1.55;;
12308;SDS011;6217;48.150;17.142;2023-07-31T20:00:05;4.50;;;2.03;;
12308;SDS011;6217;48.150;17.142;2023-07-31T20:04:16;2.83;;;1.70;;
12308;SDS011;6217;48.150;17.142;2023-07-31T20:08:22;2.35;;;1.45;;
12308;SDS011;6217;48.150;17.142;2023-07-31T20:12:28;1.67;;;1.48;;
12308;SDS011;6217;48.150;17.142;2023-07-31T20:16:34;2.38;;;1.33;;
12308;SDS011;6217;48.150;17.142;2023-07-31T20:20:43;7.40;;;1.27;;
12308;SDS011;6217;48.150;17.142;2023-07-31T20:24:49;3.75;;;1.23;;
12308;SDS011;6217;48.150;17.142;2023-07-31T20:28:55;1.85;;;1.10;;
12308;SDS011;6217;48.150;17.142;2023-07-31T20:33:01;2.65;;;1.10;;
12308;SDS011;6217;48.150;17.142;2023-07-31T20:37:07;1.88;;;1.52;;
12308;SDS011;6217;48.150;17.142;2023-07-31T20:41:13;3.58;;;1.30;;
12308;SDS011;6217;48.150;17.142;2023-07-31T20:45:19;3.22;;;1.30;;
12308;SDS011;6217;48.150;17.142;2023-07-31T20:49:25;1.67;;;1.15;;
12308;SDS011;6217;48.150;17.142;2023-07-31T20:53:31;4.70;;;2.38;;
12308;SDS011;6217;48.150;17.142;2023-07-31T20:57:37;3.78;;;2.00;;
12308;SDS011;6217;48.150;17.142;2023-07-31T21:01:43;1.83;;;1.23;;
12308;SDS011;6217;48.150;17.142;2023-07-31T21:05:52;3.15;;;1.23;;
12308;SDS011;6217;48.150;17.142;2023-07-31T21:09:59;3.95;;;1.60;;
12308;SDS011;6217;48.150;17.142;2023-07-31T21:14:05;2.40;;;1.10;;
12308;SDS011;6217;48.150;17.142;2023-07-31T21:18:11;1.73;;;1.27;;
12308;SDS011;6217;48.150;17.142;2023-07-31T21:22:17;4.65;;;1.60;;
12308;SDS011;6217;48.150;17.142;2023-07-31T21:26:22;3.85;;;1.40;;
12308;SDS011;6217;48.150;17.142;2023-07-31T21:30:29;5.78;;;1.80;;
12308;SDS011;6217;48.150;17.142;2023-07-31T21:34:35;1.73;;;1.17;;
12308;SDS011;6217;48.150;17.142;2023-07-31T21:38:41;5.65;;;1.92;;
12308;SDS011;6217;48.150;17.142;2023-07-31T21:42:50;10.10;;;1.85;;
12308;SDS011;6217;48.150;17.142;2023-07-31T21:46:56;5.88;;;2.05;;
12308;SDS011;6217;48.150;17.142;2023-07-31T21:51:02;4.18;;;1.83;;
12308;SDS011;6217;48.150;17.142;2023-07-31T21:55:08;4.88;;;2.13;;
12308;SDS011;6217;48.150;17.142;2023-07-31T21:59:14;5.05;;;2.47;;
12308;SDS011;6217;48.150;17.142;2023-07-31T22:03:20;4.65;;;2.33;;
12308;SDS011;6217;48.150;17.142;2023-07-31T22:07:26;9.65;;;4.13;;
12308;SDS011;6217;48.150;17.142;2023-07-31T22:11:32;10.82;;;3.50;;
12308;SDS011;6217;48.150;17.142;2023-07-31T22:15:38;7.35;;;4.25;;
12308;SDS011;6217;48.150;17.142;2023-07-31T22:19:44;7.15;;;3.72;;
12308;SDS011;6217;48.150;17.142;2023-07-31T22:23:50;6.07;;;4.00;;
12308;SDS011;6217;48.150;17.142;2023-07-31T22:27:56;10.55;;;3.42;;
12308;SDS011;6217;48.150;17.142;2023-07-31T22:32:02;6.35;;;3.72;;
12308;SDS011;6217;48.150;17.142;2023-07-31T22:36:08;5.45;;;3.25;;
12308;SDS011;6217;48.150;17.142;2023-07-31T22:40:14;6.53;;;4.55;;
12308;SDS011;6217;48.150;17.142;2023-07-31T22:44:21;8.63;;;4.15;;
12308;SDS011;6217;48.150;17.142;2023-07-31T22:48:27;5.25;;;3.50;;
12308;SDS011;6217;48.150;17.142;2023-07-31T22:52:32;6.30;;;3.58;;
12308;SDS011;6217;48.150;17.142;2023-07-31T22:56:38;5.93;;;3.55;;
12308;SDS011;6217;48.150;17.142;2023-07-31T23:00:45;8.25;;;3.30;;
12308;SDS011;6217;48.150;17.142;2023-07-31T23:04:52;7.75;;;3.60;;
12308;SDS011;6217;48.150;17.142;2023-07-31T23:08:58;4.80;;;3.10;;
12308;SDS011;6217;48.150;17.142;2023-07-31T23:13:04;6.38;;;3.50;;
12308;SDS011;6217;48.150;17.142;2023-07-31T23:17:10;7.20;;;3.58;;
12308;SDS011;6217;48.150;17.142;2023-07-31T23:21:16;4.28;;;3.65;;
12308;SDS011;6217;48.150;17.142;2023-07-31T23:25:22;5.55;;;4.40;;
12308;SDS011;6217;48.150;17.142;2023-07-31T23:29:28;5.63;;;4.10;;
12308;SDS011;6217;48.150;17.142;2023-07-31T23:33:34;5.03;;;4.50;;
12308;SDS011;6217;48.150;17.142;2023-07-31T23:37:40;5.40;;;4.32;;
12308;SDS011;6217;48.150;17.142;2023-07-31T23:41:46;7.85;;;5.32;;
12308;SDS011;6217;48.150;17.142;2023-07-31T23:45:52;5.28;;;4.72;;
12308;SDS011;6217;48.150;17.142;2023-07-31T23:49:58;6.47;;;5.65;;
12308;SDS011;6217;48.150;17.142;2023-07-31T23:54:04;5.93;;;4.63;;
12308;SDS011;6217;48.150;17.142;2023-07-31T23:58:10;14.73;;;4.53;;
